• Join FlightAware (Why Join?)
  • Login
  • US Flag 
01:38PM EDT


 

Airport Tracker/Info


-or-


 

Live Flight TrackerFlight Track Log ✈ N664HW ✈ 28-Apr-2013 ✈ KAGS - KJZI

Flight Track Log - Related Links

Times and Time Zones

All times are in EDT time to prevent confusion due to time zone crossing. See the N664HW flight status page for this flight to view local times or setup timezone preferences in your user account.

Time Position Orientation Groundspeed Altitude Reporting Facility
EDT Latitude Longitude Course Direction KTS MPH feet Rate Location/Type
04:15PM 33.2941 -81.7361 112° Southeast  Level Estimated
04:16PM 33.2789 -81.6905 112° Southeast  Level Estimated
04:16PM 33.2878 -81.6700 112° Southeast 137 158 3,100  Level Jacksonville Center
04:17PM 33.2630 -81.6452 113° Southeast  Level FlightAware Approximate
04:17PM 33.2728 -81.6256 112° Southeast 144 166 3,100  Level Jacksonville Center
04:18PM 33.2464 -81.5980 113° Southeast  Level FlightAware Approximate
04:18PM 33.2578 -81.5858 114° Southeast 144 166 3,100  Level Jacksonville Center
04:19PM 33.2297 -81.5508 113° Southeast  Level FlightAware Approximate
04:19PM 33.2428 -81.5464 114° Southeast 144 166 3,100  Level Jacksonville Center
04:20PM 33.2131 -81.5036 113° Southeast  Level FlightAware Approximate
04:20PM 33.2297 -81.5019 109° East 134 154 3,100  Level Jacksonville Center
04:21PM 33.1966 -81.4564 112° Southeast  Level FlightAware Approximate
04:21PM 33.2147 -81.4600 113° Southeast 134 154 3,100  Level Jacksonville Center
04:22PM 33.1808 -81.4088 112° Southeast  Level FlightAware Approximate
04:22PM 33.2017 -81.4181 110° East 129 148 3,100  Level Jacksonville Center
04:23PM 33.1867 -81.3761 113° Southeast 129 148 3,100  Level Jacksonville Center
04:24PM 33.1714 -81.3367 115° Southeast 129 148 3,100  Level Jacksonville Center
04:25PM 33.1542 -81.2922 115° Southeast 129 148 3,100  Level Jacksonville Center
04:26PM 33.1369 -81.2528 118° Southeast 134 154 3,100  Level Jacksonville Center
04:27PM 33.1178 -81.2111 119° Southeast 134 154 3,100  Level Jacksonville Center
04:28PM 33.1025 -81.1692 113° Southeast 139 160 3,100  Level Jacksonville Center
04:29PM 33.0853 -81.1272 116° Southeast 139 160 3,100  Level Jacksonville Center
04:30PM 33.0700 -81.0906 116° Southeast 139 160 3,100  Level Jacksonville Center
04:31PM 33.0528 -81.0486 116° Southeast 139 160 3,100  Level Jacksonville Center
04:32PM 33.0375 -81.0069 114° Southeast 139 160 3,100  Level Jacksonville Center
04:33PM 33.0181 -80.9653 119° Southeast 139 160 3,100  Level Jacksonville Center
04:34PM 33.0008 -80.9233 116° Southeast 139 160 3,100  Level Jacksonville Center
04:35PM 32.9836 -80.8842 118° Southeast 139 160 3,200  Climbing Jacksonville Center
04:36PM 32.9661 -80.8425 117° Southeast 139 160 3,100 -120 Descending Jacksonville Center
04:37PM 32.9486 -80.7983 115° Southeast 139 160 3,000 -60 Descending Jacksonville Center
04:38PM 32.9292 -80.7567 119° Southeast 139 160 3,000  Level Jacksonville Center
04:39PM 32.9139 -80.7150 114° Southeast 139 160 3,000  Level Jacksonville Center
04:40PM 32.8967 -80.6758 118° Southeast 139 160 3,100  Climbing Jacksonville Center
04:41PM 32.8792 -80.6342 117° Southeast 139 160 3,100  Level Jacksonville Center
04:42PM 32.8639 -80.5925 114° Southeast 139 160 3,100 -240 Level Jacksonville Center
04:43PM 32.8442 -80.5486 118° Southeast 139 160 2,700 -360 Descending Jacksonville Center
04:44PM 32.8244 -80.5047 118° Southeast 139 160 2,400 -300 Descending Jacksonville Center
04:46PM 32.8141 -80.4499 103° East  Level FlightAware Approximate
04:53PM 32.7502 -80.1615 117° Southeast  Level FlightAware Approximate
04:54PM 32.7341 -80.1240 117° Southeast  Level FlightAware Approximate
04:55PM 32.7180 -80.0865 117° Southeast  Level FlightAware Approximate